• Join FlightAware (Why Join?)
  • Login
  • US Flag 
01:25PM EST


 

Airport Tracker/Info


-or-


 

Live Flight TrackerFlight Track Log ✈ ASA55 ✈ 02-Nov-2013 ✈ PASC / SCC - PABR / BRW

Flight Track Log - Related Links

Times and Time Zones

All times are in EDT time to prevent confusion due to time zone crossing. See the ASA55 flight status page for this flight to view local times or setup timezone preferences in your user account.

Time Position Orientation Groundspeed Altitude Reporting Facility
EDT Latitude Longitude Course Direction KTS MPH feet Rate Location/Type
01:24PM 70.2667 -148.8833 298° West 250 288 8,100  Level Anchorage Center
01:25PM 70.3000 -149.0833 296° West 270 311 11,100 2,580 Climbing Anchorage Center
01:26PM 70.3333 -149.3167 293° West 330 380 13,300 2,760 Climbing Anchorage Center
01:27PM 70.3667 -149.5667 292° West 350 403 16,700 3,060 Climbing Anchorage Center
01:28PM 70.4167 -149.8500 298° West 370 426 19,500 3,000 Climbing Anchorage Center
01:29PM 70.4564 -150.1436 292° West  Level Estimated
01:29PM 70.4667 -150.1167 299° West 370 426 22,700  Level Anchorage Center
01:30PM 70.5000 -150.4167 289° West 390 449 24,800 2,220 Climbing Anchorage Center
01:31PM 70.5500 -150.7000 298° West 390 449 27,200 2,340 Climbing Anchorage Center
01:32PM 70.6000 -151.0000 297° West 390 449 29,600 2,040 Climbing Anchorage Center
01:33PM 70.6500 -151.3000 297° West 390 449 31,400 1,200 Climbing Anchorage Center
01:34PM 70.6833 -151.6000 289° West 390 449 32,000 300 Climbing Anchorage Center
01:35PM 70.7333 -151.8833 298° West 390 449 32,000  Level Anchorage Center
01:36PM 70.7667 -152.1833 289° West 390 449 32,000  Level Anchorage Center
01:37PM 70.8167 -152.4833 297° West 380 437 32,000 -840 Level Anchorage Center
01:38PM 70.8500 -152.7667 290° West 390 449 30,400 -2,220 Descending Anchorage Center
01:39PM 70.9000 -153.0667 297° West 390 449 27,600 -2,880 Descending Anchorage Center
01:40PM 70.9333 -153.3500 290° West 380 437 24,700 -2,760 Descending Anchorage Center
01:41PM 70.9667 -153.6500 289° West 370 426 22,100 -2,580 Descending Anchorage Center
01:42PM 71.0000 -153.9167 291° West 350 403 19,600 -2,400 Descending Anchorage Center
01:43PM 71.0333 -154.1833 291° West 340 391 17,300 -2,220 Descending Anchorage Center
01:44PM 71.0667 -154.4500 291° West 320 368 15,200 -2,100 Descending Anchorage Center
01:45PM 71.1000 -154.6833 294° West 300 345 13,200 -1,980 Descending Anchorage Center
01:46PM 71.1333 -154.9333 293° West 310 357 11,300 -1,560 Descending Anchorage Center
01:47PM 71.1667 -155.1833 293° West 300 345 10,100 -1,260 Descending Anchorage Center
01:48PM 71.1833 -155.4000 284° West 260 299 8,800 -1,320 Descending Anchorage Center
01:49PM 71.2167 -155.6000 297° West 240 276 7,500 -1,440 Descending Anchorage Center
01:50PM 71.2333 -155.8000 285° West 240 276 5,900 -1,500 Descending Anchorage Center
01:51PM 71.2500 -156.0000 285° West 230 265 4,600 -1,200 Descending Anchorage Center
01:52PM 71.2667 -156.1667 287° West 220 253 3,600 -900 Descending Anchorage Center
01:53PM 71.2833 -156.3333 287° West 200 230 2,900 -720 Descending Anchorage Center
01:56PM 71.2847 -156.6888 285° West  Level Estimated
02:03PM 71.2833 -156.7667 18° North  Level FlightAware Approximate
02:04PM 71.2849 -156.7686 18° North  Level Estimated
02:05PM 71.2833 -156.7667 18° North  Level FlightAware Approximate
02:06PM 71.2849 -156.7686 18° North  Level Estimated